createdAt,value
2023-01-18T00:05:12.742Z,21.5
2023-01-18T00:11:08.501Z,19.4
2023-01-18T00:17:10.547Z,17.4
2023-01-18T00:23:02.973Z,16.2
2023-01-18T00:28:54.067Z,16.3
2023-01-18T00:41:00.301Z,14.7
2023-01-18T00:46:56.301Z,15
2023-01-18T00:52:49.821Z,15.2
2023-01-18T00:58:42.603Z,15
2023-01-18T01:04:35.012Z,17.5
2023-01-18T01:16:35.596Z,16.6
2023-01-18T01:22:27.065Z,15.2
2023-01-18T01:28:18.633Z,15.6
2023-01-18T01:34:09.717Z,16.2
2023-01-18T01:40:00.100Z,16.2
2023-01-18T01:46:03.616Z,17
2023-01-18T01:52:00.700Z,16.5
2023-01-18T01:57:54.828Z,15.9
2023-01-18T02:03:46.730Z,16.3
2023-01-18T02:09:37.648Z,17.2
2023-01-18T02:15:36.051Z,16.7
2023-01-18T02:21:36.318Z,18.7
2023-01-18T02:27:30.210Z,17.3
2023-01-18T02:33:35.616Z,19.5
2023-01-18T02:39:27.571Z,22.3
2023-01-18T02:45:27.466Z,18.6
2023-01-18T02:51:18.489Z,18.9
2023-01-18T02:57:09.784Z,17.2
2023-01-18T03:03:05.758Z,17.2
2023-01-18T03:08:56.760Z,19.7
2023-01-18T03:14:50.321Z,19.1
2023-01-18T03:20:41.436Z,17.1
2023-01-18T03:26:37.923Z,16.6
2023-01-18T03:32:28.932Z,18
2023-01-18T03:38:25.939Z,18.4
2023-01-18T03:44:16.747Z,20.3
2023-01-18T03:50:07.728Z,19
2023-01-18T03:56:05.090Z,17.7
2023-01-18T04:01:59.898Z,18.3
2023-01-18T04:14:05.302Z,22.3
2023-01-18T04:20:04.375Z,19.2
2023-01-18T04:25:56.358Z,18.6
2023-01-18T04:31:53.822Z,20.3
2023-01-18T04:37:48.744Z,18.8
2023-01-18T04:43:41.559Z,17.9
2023-01-18T04:49:31.480Z,18.3
2023-01-18T04:55:21.286Z,20.7
2023-01-18T05:01:10.231Z,19.2
2023-01-18T05:07:01.310Z,18.2
2023-01-18T05:12:51.167Z,18
2023-01-18T05:18:41.688Z,18.3
2023-01-18T05:24:36.510Z,18.4
2023-01-18T05:30:26.411Z,20.8
2023-01-18T05:36:16.930Z,22.7
2023-01-18T05:42:07.628Z,21.2
2023-01-18T05:47:57.919Z,19.2
2023-01-18T05:53:48.633Z,20.7
2023-01-18T05:59:38.885Z,23.1
2023-01-18T06:05:29.728Z,21.3
2023-01-18T06:11:20.342Z,22.9
2023-01-18T06:17:10.680Z,21.8
2023-01-18T06:23:04.465Z,24.9
2023-01-18T06:28:55.276Z,26.3
2023-01-18T06:34:45.672Z,24.6
2023-01-18T06:40:36.482Z,24.9
2023-01-18T06:46:28.594Z,24.5
2023-01-18T06:52:18.718Z,28
2023-01-18T06:58:09.810Z,32.2
2023-01-18T07:04:01.250Z,28.3
2023-01-18T07:09:52.426Z,30.6
2023-01-18T07:15:42.828Z,28.5
2023-01-18T07:21:33.828Z,28.3
2023-01-18T07:27:24.824Z,28.3
2023-01-18T07:33:16.095Z,31.3
2023-01-18T07:39:06.519Z,30.1
2023-01-18T07:44:57.760Z,28.9
2023-01-18T07:50:48.781Z,29.5
2023-01-18T07:56:39.972Z,27
2023-01-18T08:02:30.493Z,29.5
2023-01-18T08:08:21.179Z,31
2023-01-18T08:14:11.677Z,28.6
2023-01-18T08:20:02.640Z,29.8
2023-01-18T08:25:55.569Z,30.7
2023-01-18T08:31:46.317Z,30.4
2023-01-18T08:37:36.434Z,35
2023-01-18T08:43:27.720Z,35.7
2023-01-18T08:49:18.519Z,37.8
2023-01-18T08:55:09.629Z,35.4
2023-01-18T09:01:00.727Z,33.2
2023-01-18T09:06:52.981Z,34.6
2023-01-18T09:12:43.788Z,36.2
2023-01-18T09:18:35.506Z,38.9
2023-01-18T09:24:33.281Z,48.1
2023-01-18T09:30:24.933Z,39.3
2023-01-18T09:36:18.654Z,38.2
2023-01-18T09:42:09.032Z,37.9
2023-01-18T09:47:59.744Z,39.4
2023-01-18T09:53:51.014Z,35.9
2023-01-18T09:59:42.327Z,37.2
2023-01-18T10:05:32.446Z,36.4
2023-01-18T10:11:23.604Z,41.1
2023-01-18T10:17:16.483Z,58.9
2023-01-18T10:23:07.312Z,42.9
2023-01-18T10:29:02.171Z,31.8
2023-01-18T10:34:52.432Z,31.5
2023-01-18T10:40:44.864Z,31.1
2023-01-18T10:46:35.977Z,29
2023-01-18T10:52:26.647Z,28.3
2023-01-18T10:58:17.413Z,23.8
2023-01-18T11:04:09.645Z,21.6
2023-01-18T11:10:00.206Z,22.2
2023-01-18T11:15:48.796Z,30.5
2023-01-18T11:21:40.893Z,31.5
2023-01-18T11:27:33.082Z,30.8
2023-01-18T11:33:23.690Z,30.5
2023-01-18T11:39:14.756Z,29.1
2023-01-18T11:45:03.562Z,29.9
2023-01-18T11:50:54.238Z,31.8
2023-01-18T11:56:44.421Z,36.6
2023-01-18T12:02:34.406Z,25.9
2023-01-18T12:08:24.929Z,25.5
2023-01-18T12:14:14.629Z,23.6
2023-01-18T12:20:05.621Z,22.6
2023-01-18T12:26:22.157Z,22.5
2023-01-18T12:32:11.310Z,22.4
2023-01-18T12:38:03.628Z,21.2
2023-01-18T12:43:56.197Z,18.6
2023-01-18T12:49:47.033Z,9.1
2023-01-18T12:55:37.194Z,5.9
2023-01-18T13:01:27.856Z,5
2023-01-18T13:07:18.797Z,6.4
2023-01-18T13:13:11.131Z,5.8
2023-01-18T13:19:01.684Z,4.8
2023-01-18T13:24:51.735Z,5.3
2023-01-18T13:30:42.462Z,4.4
2023-01-18T13:36:35.850Z,5
2023-01-18T13:42:26.850Z,4.5
2023-01-18T13:48:21.039Z,5.2
2023-01-18T13:54:16.347Z,5
2023-01-18T14:00:07.876Z,5.7
2023-01-18T14:05:57.477Z,5.8
2023-01-18T14:11:49.017Z,5.4
2023-01-18T14:18:00.144Z,5.1
2023-01-18T14:23:49.107Z,5.4
2023-01-18T14:29:39.048Z,5.4
2023-01-18T14:35:51.880Z,5.1
2023-01-18T14:41:48.068Z,6.1
2023-01-18T14:47:58.454Z,5.7
2023-01-18T14:53:50.082Z,5.5
2023-01-18T14:59:54.943Z,4.9
2023-01-18T15:05:51.728Z,5.1
2023-01-18T15:11:42.235Z,5.1
2023-01-18T15:17:35.852Z,5.1
2023-01-18T15:23:30.095Z,6.1
2023-01-18T15:29:21.049Z,5.5
2023-01-18T15:35:12.298Z,5.3
2023-01-18T15:41:03.821Z,6.7
2023-01-18T15:46:53.123Z,9.4
2023-01-18T15:52:47.102Z,8.4
2023-01-18T15:58:37.521Z,8.5
2023-01-18T16:04:27.927Z,8.1
2023-01-18T16:10:19.045Z,9.2
2023-01-18T16:16:09.355Z,10.2
2023-01-18T16:21:59.041Z,10.4
2023-01-18T16:27:52.388Z,10.4
2023-01-18T16:33:42.678Z,8.8
2023-01-18T16:39:32.060Z,9.4
2023-01-18T16:45:25.231Z,9.6
2023-01-18T16:51:15.432Z,9.5
2023-01-18T16:57:05.221Z,9.8
2023-01-18T17:03:03.115Z,9
2023-01-18T17:08:55.986Z,9.3
2023-01-18T17:14:49.582Z,11.4
2023-01-18T17:20:41.865Z,19.2
2023-01-18T17:26:32.508Z,22.7
2023-01-18T17:32:23.117Z,20.7
2023-01-18T17:38:34.748Z,20.1
2023-01-18T17:44:40.052Z,16.6
2023-01-18T17:50:31.428Z,18
2023-01-18T17:56:21.398Z,20.3
2023-01-18T18:02:15.923Z,23.2
2023-01-18T18:08:11.191Z,22.6
2023-01-18T18:14:12.125Z,23.4
2023-01-18T18:20:02.451Z,21.4
2023-01-18T18:25:53.221Z,20.9
2023-01-18T18:31:57.072Z,18.6
2023-01-18T18:37:49.563Z,18.7
2023-01-18T18:43:40.460Z,20.3
2023-01-18T18:49:38.828Z,20.6
2023-01-18T18:55:27.912Z,23.2
2023-01-18T19:01:21.917Z,24
2023-01-18T19:07:12.363Z,26.8
2023-01-18T19:13:03.405Z,21.9
2023-01-18T19:18:55.789Z,20.3
2023-01-18T19:24:47.847Z,18.4
2023-01-18T19:30:40.815Z,13.6
2023-01-18T19:36:30.466Z,21.7
2023-01-18T19:42:21.086Z,20.1
2023-01-18T19:48:12.994Z,21.7
2023-01-18T19:54:03.169Z,23.4
2023-01-18T19:59:52.972Z,23.6
2023-01-18T20:05:44.014Z,19.7
2023-01-18T20:11:33.892Z,17.5
2023-01-18T20:17:34.173Z,13.1
2023-01-18T20:23:28.267Z,20.7
2023-01-18T20:29:18.402Z,22.3
2023-01-18T20:35:38.246Z,21.1
2023-01-18T20:41:36.385Z,22.9
2023-01-18T20:47:35.101Z,21.4
2023-01-18T20:53:23.511Z,16.6
2023-01-18T20:59:12.293Z,23.2
2023-01-18T21:05:02.521Z,22.4
2023-01-18T21:10:50.831Z,21.3
2023-01-18T21:16:41.982Z,19.5
2023-01-18T21:22:32.805Z,16.5
2023-01-18T21:28:23.253Z,15.4
2023-01-18T21:34:17.260Z,17
2023-01-18T21:40:06.756Z,17.6
2023-01-18T21:45:56.939Z,20.4
2023-01-18T21:51:47.269Z,23.5
2023-01-18T21:57:35.809Z,14.6
2023-01-18T22:03:24.050Z,13.2
2023-01-18T22:09:13.631Z,16.9
2023-01-18T22:15:04.847Z,15.7
2023-01-18T22:20:54.522Z,15.2
2023-01-18T22:26:44.643Z,13.6
2023-01-18T22:32:33.149Z,12.9
2023-01-18T22:38:22.429Z,14.9
2023-01-18T22:44:11.271Z,13.9
2023-01-18T22:50:00.090Z,13.9
2023-01-18T22:55:49.977Z,14.1
2023-01-18T23:01:39.268Z,14.3
2023-01-18T23:07:28.985Z,13.9
2023-01-18T23:13:18.424Z,13.4
2023-01-18T23:19:07.552Z,13.8
2023-01-18T23:24:56.585Z,14.2
2023-01-18T23:31:15.053Z,14.8
2023-01-18T23:37:03.003Z,14.7
2023-01-18T23:49:30.263Z,14.1
2023-01-18T23:55:18.704Z,15.2
